Time;durP1;ratioP1;P1;durP2;ratioP2;P2;SDS_P1;SDS_P2;PMS_P1;PMS_P2;Temp;Humidity;BMP_temperature;BMP_pressure;BME280_temperature;BME280_humidity;BME280_pressure;Samples;Min_cycle;Max_cycle;Signal;HPM_P1;HPM_P2
2023/06/25 00:01:04;;;;;;;2.55;2.30;;;25.30;46.80;;;;;;5056384;28;20021;-73
2023/06/25 00:03:29;;;;;;;3.90;2.58;;;25.40;46.90;;;;;;5056098;28;20025;-74
2023/06/25 00:05:55;;;;;;;3.05;2.50;;;25.30;46.90;;;;;;5054452;28;20025;-74
2023/06/25 00:08:21;;;;;;;3.08;2.38;;;25.30;47.00;;;;;;5056042;28;20087;-74
2023/06/25 00:10:46;;;;;;;3.95;2.38;;;25.30;47.00;;;;;;5054856;28;20032;-73
2023/06/25 00:13:12;;;;;;;6.07;2.30;;;25.20;47.20;;;;;;5055904;28;20079;-73
2023/06/25 00:15:38;;;;;;;3.15;2.25;;;25.20;47.30;;;;;;5055766;28;20052;-73
2023/06/25 00:18:04;;;;;;;3.88;2.30;;;25.20;47.40;;;;;;5055636;28;20052;-73
2023/06/25 00:20:30;;;;;;;2.72;2.03;;;25.20;47.40;;;;;;5056089;28;20481;-73
2023/06/25 00:22:56;;;;;;;4.97;2.50;;;25.20;47.50;;;;;;5055924;28;20027;-73
2023/06/25 00:25:26;;;;;;;3.13;2.20;;;25.10;47.30;;;;;;5055782;28;20096;-73
2023/06/25 00:27:52;;;;;;;2.67;2.38;;;25.10;47.30;;;;;;5055752;28;20059;-73
2023/06/25 00:30:18;;;;;;;3.03;2.38;;;25.10;47.40;;;;;;5055424;28;20029;-72
2023/06/25 00:32:44;;;;;;;2.90;2.13;;;25.10;47.70;;;;;;5054293;28;20112;-73
2023/06/25 00:35:11;;;;;;;3.50;2.10;;;25.10;47.50;;;;;;5055370;28;20131;-73
2023/06/25 00:37:38;;;;;;;2.90;2.50;;;25.10;47.80;;;;;;5055453;28;20021;-73
2023/06/25 00:40:08;;;;;;;2.67;2.22;;;25.00;48.00;;;;;;5055741;28;20025;-73
2023/06/25 00:42:41;;;;;;;2.38;2.10;;;25.00;48.20;;;;;;5054226;28;20411;-73
2023/06/25 00:45:16;;;;;;;6.45;2.30;;;25.00;48.50;;;;;;5055439;28;20560;-73
2023/06/25 00:47:42;;;;;;;6.65;2.08;;;24.90;48.90;;;;;;5053942;28;20040;-73
2023/06/25 00:50:11;;;;;;;4.10;1.83;;;24.90;49.40;;;;;;5054602;28;20354;-73
2023/06/25 00:52:38;;;;;;;5.28;2.05;;;24.80;49.50;;;;;;5055162;28;20103;-73
2023/06/25 00:55:08;;;;;;;4.85;2.00;;;24.80;49.80;;;;;;5055142;28;20096;-73
2023/06/25 00:57:35;;;;;;;3.80;1.85;;;24.70;50.20;;;;;;5054088;28;20032;-73
2023/06/25 01:00:01;;;;;;;3.72;2.20;;;24.70;50.30;;;;;;5052333;28;20060;-73
2023/06/25 01:02:35;;;;;;;2.67;2.25;;;24.70;50.50;;;;;;5052345;28;20088;-73
2023/06/25 01:05:11;;;;;;;2.83;1.70;;;24.60;50.60;;;;;;5053513;28;20033;-73
2023/06/25 01:07:43;;;;;;;4.13;1.90;;;24.60;50.70;;;;;;5054723;28;20040;-73
2023/06/25 01:10:12;;;;;;;2.03;1.80;;;24.60;50.90;;;;;;5054913;28;20056;-73
2023/06/25 01:12:39;;;;;;;6.25;1.80;;;24.50;51.50;;;;;;5054753;28;20078;-72
2023/06/25 01:15:06;;;;;;;2.42;1.73;;;24.50;51.00;;;;;;5054918;28;20036;-73
2023/06/25 01:17:32;;;;;;;1.90;1.67;;;24.50;51.10;;;;;;5054730;28;20106;-73
2023/06/25 01:19:58;;;;;;;2.20;1.88;;;24.50;51.30;;;;;;5052706;28;20393;-73
2023/06/25 01:22:29;;;;;;;2.70;1.88;;;24.50;51.40;;;;;;5054423;28;20028;-73
2023/06/25 01:24:55;;;;;;;2.53;1.67;;;24.40;51.60;;;;;;5054436;28;20044;-73
2023/06/25 01:27:22;;;;;;;3.45;1.77;;;24.40;51.60;;;;;;5054563;28;20789;-73
2023/06/25 01:29:48;;;;;;;2.78;1.80;;;24.30;51.80;;;;;;5054350;28;20021;-73
2023/06/25 01:32:15;;;;;;;2.55;1.80;;;24.30;52.00;;;;;;5054470;28;20055;-73
2023/06/25 01:34:40;;;;;;;2.47;1.77;;;24.30;52.20;;;;;;5054308;28;20573;-73
2023/06/25 01:37:06;;;;;;;3.08;1.77;;;24.20;52.00;;;;;;5053997;28;20124;-73
2023/06/25 01:39:32;;;;;;;5.35;1.90;;;24.20;52.30;;;;;;5054463;28;20032;-74
2023/06/25 01:41:58;;;;;;;2.35;1.73;;;24.20;52.90;;;;;;5054609;28;20025;-74
2023/06/25 01:44:29;;;;;;;10.98;2.55;;;24.20;53.00;;;;;;5054299;28;20052;-74
2023/06/25 01:46:56;;;;;;;2.50;1.70;;;24.10;53.30;;;;;;5054294;28;20037;-73
2023/06/25 01:49:23;;;;;;;5.35;1.75;;;24.10;53.30;;;;;;5054275;28;20499;-74
2023/06/25 01:51:48;;;;;;;2.58;1.73;;;24.00;53.30;;;;;;5054202;28;20032;-74
2023/06/25 01:54:14;;;;;;;3.00;1.90;;;24.00;53.30;;;;;;5054164;28;20024;-73
2023/06/25 01:56:40;;;;;;;2.83;1.80;;;23.90;53.30;;;;;;5053831;28;20115;-73
2023/06/25 01:59:06;;;;;;;1.63;1.45;;;23.90;53.40;;;;;;5054104;28;20040;-73
2023/06/25 02:01:32;;;;;;;1.70;1.35;;;23.80;53.50;;;;;;5054068;28;20033;-74
2023/06/25 02:03:58;;;;;;;2.55;1.52;;;23.80;53.80;;;;;;5052523;28;20044;-74
2023/06/25 02:06:23;;;;;;;1.88;1.40;;;23.70;53.70;;;;;;5053645;28;20021;-74
2023/06/25 02:08:49;;;;;;;2.33;1.63;;;23.70;54.10;;;;;;5053549;28;20033;-73
2023/06/25 02:11:15;;;;;;;2.45;1.48;;;23.70;54.40;;;;;;5053624;28;20025;-75
2023/06/25 02:13:41;;;;;;;3.67;1.70;;;23.70;54.40;;;;;;5053783;28;20029;-73
2023/06/25 02:16:06;;;;;;;6.10;2.00;;;23.60;54.40;;;;;;5053579;28;20024;-73
2023/06/25 02:18:32;;;;;;;2.35;2.00;;;23.60;55.00;;;;;;5053532;28;20033;-73
2023/06/25 02:20:58;;;;;;;3.00;1.77;;;23.60;55.10;;;;;;5053683;28;20061;-74
2023/06/25 02:23:24;;;;;;;2.50;1.83;;;23.60;55.40;;;;;;5053516;28;20025;-74
2023/06/25 02:25:50;;;;;;;2.47;1.80;;;23.50;55.60;;;;;;5053637;28;20380;-74
2023/06/25 02:28:16;;;;;;;2.38;1.88;;;23.50;55.60;;;;;;5053265;28;20044;-74
2023/06/25 02:30:42;;;;;;;2.70;2.08;;;23.50;55.70;;;;;;5053416;28;20021;-74
2023/06/25 02:33:08;;;;;;;3.38;1.80;;;23.50;55.50;;;;;;5053227;28;20040;-75
2023/06/25 02:35:34;;;;;;;2.22;1.60;;;23.40;55.40;;;;;;5053350;28;20045;-75
2023/06/25 02:38:00;;;;;;;2.50;1.60;;;23.40;55.60;;;;;;5053387;28;20021;-74
2023/06/25 02:40:29;;;;;;;1.65;1.45;;;23.40;55.50;;;;;;5053519;28;20090;-74
2023/06/25 02:42:55;;;;;;;1.90;1.60;;;23.40;56.00;;;;;;5053295;28;20044;-73
2023/06/25 02:45:22;;;;;;;2.72;1.88;;;23.40;55.30;;;;;;5052978;28;20021;-73
2023/06/25 02:47:48;;;;;;;1.60;1.50;;;23.40;55.40;;;;;;5051943;28;20036;-74
2023/06/25 02:50:14;;;;;;;5.35;1.88;;;23.30;55.40;;;;;;5052868;28;20021;-74
2023/06/25 02:52:40;;;;;;;3.78;2.60;;;23.30;55.70;;;;;;5052959;28;20029;-74
2023/06/25 02:55:06;;;;;;;3.00;2.35;;;23.20;56.40;;;;;;5053123;28;20028;-74
2023/06/25 02:57:32;;;;;;;3.22;2.42;;;23.10;56.60;;;;;;5053000;28;20027;-74
2023/06/25 02:59:59;;;;;;;4.53;2.45;;;23.00;56.80;;;;;;5053149;28;20020;-74
2023/06/25 03:02:25;;;;;;;4.50;2.58;;;22.90;57.00;;;;;;5053159;28;20033;-74
2023/06/25 03:04:51;;;;;;;4.40;2.47;;;22.90;57.40;;;;;;5052819;28;20075;-74
2023/06/25 03:07:17;;;;;;;3.70;2.50;;;22.80;57.20;;;;;;5052784;28;20086;-74
2023/06/25 03:09:43;;;;;;;5.70;2.88;;;22.80;57.70;;;;;;5051753;28;20024;-74
2023/06/25 03:12:10;;;;;;;7.35;2.70;;;22.80;57.50;;;;;;5052925;28;20036;-73
2023/06/25 03:14:36;;;;;;;3.88;2.53;;;22.60;57.60;;;;;;5050977;28;20029;-74
2023/06/25 03:17:03;;;;;;;4.20;2.70;;;22.60;58.00;;;;;;5052838;28;20028;-74
2023/06/25 03:19:29;;;;;;;2.70;2.50;;;22.60;58.70;;;;;;5052898;28;20029;-74
2023/06/25 03:21:55;;;;;;;4.70;2.80;;;22.60;58.80;;;;;;5052715;28;20388;-74
2023/06/25 03:24:21;;;;;;;5.00;2.53;;;22.50;58.60;;;;;;5052458;28;20021;-74
2023/06/25 03:26:46;;;;;;;5.30;2.83;;;22.50;58.30;;;;;;5052729;28;20044;-73
2023/06/25 03:29:12;;;;;;;8.65;2.92;;;22.50;58.10;;;;;;5052701;28;20108;-74
2023/06/25 03:31:38;;;;;;;6.00;3.00;;;22.60;58.40;;;;;;5052733;28;20133;-74
2023/06/25 03:34:04;;;;;;;4.30;3.00;;;22.60;58.20;;;;;;5051545;28;20021;-74
2023/06/25 03:36:29;;;;;;;7.65;3.10;;;22.60;58.40;;;;;;5052427;28;20055;-75
2023/06/25 03:38:56;;;;;;;3.75;2.58;;;22.50;58.20;;;;;;5052611;28;20045;-75
2023/06/25 03:41:22;;;;;;;4.78;2.85;;;22.50;58.30;;;;;;5052604;28;20025;-73
2023/06/25 03:43:49;;;;;;;4.90;2.60;;;22.50;58.40;;;;;;5052322;28;20018;-73
2023/06/25 03:46:15;;;;;;;5.22;2.63;;;22.50;58.30;;;;;;5052661;28;20029;-73
2023/06/25 03:48:42;;;;;;;4.75;2.80;;;22.40;58.20;;;;;;5052152;28;20036;-73
2023/06/25 03:51:08;;;;;;;5.65;3.00;;;22.40;58.40;;;;;;5050650;28;20078;-73
2023/06/25 03:53:34;;;;;;;5.80;2.85;;;22.40;58.20;;;;;;5052202;28;20083;-73
2023/06/25 03:56:00;;;;;;;3.58;2.55;;;22.40;58.10;;;;;;5052360;28;20022;-73
2023/06/25 03:58:25;;;;;;;4.53;2.75;;;22.40;58.10;;;;;;5052124;28;20021;-73
2023/06/25 04:00:51;;;;;;;4.55;2.80;;;22.40;58.40;;;;;;5051109;28;20021;-74
2023/06/25 04:03:17;;;;;;;3.42;2.75;;;22.40;58.40;;;;;;5051883;28;20028;-74
2023/06/25 04:05:44;;;;;;;3.95;2.75;;;22.40;58.60;;;;;;5052340;28;20025;-74
2023/06/25 04:08:10;;;;;;;4.70;3.10;;;22.40;58.80;;;;;;5052483;28;20544;-73
2023/06/25 04:10:36;;;;;;;2.60;2.40;;;22.40;59.20;;;;;;5052167;28;20147;-74
2023/06/25 04:13:02;;;;;;;6.35;3.50;;;22.40;59.30;;;;;;5052208;28;20032;-73
2023/06/25 04:15:28;;;;;;;7.05;2.78;;;22.40;59.40;;;;;;5052087;28;20029;-73
2023/06/25 04:17:54;;;;;;;5.68;2.65;;;22.40;59.40;;;;;;5052208;28;20555;-73
2023/06/25 04:20:19;;;;;;;4.72;2.95;;;22.40;60.10;;;;;;5051024;28;20025;-73
2023/06/25 04:22:45;;;;;;;4.15;3.08;;;22.40;60.60;;;;;;5050965;28;20480;-73
2023/06/25 04:25:11;;;;;;;4.10;3.05;;;22.40;60.60;;;;;;5052381;28;20027;-73
2023/06/25 04:27:38;;;;;;;3.83;2.65;;;22.40;61.00;;;;;;5055753;28;20037;-73
2023/06/25 04:30:04;;;;;;;4.57;3.10;;;22.40;61.00;;;;;;5055948;28;20048;-73
2023/06/25 04:32:32;;;;;;;9.80;4.00;;;22.40;60.70;;;;;;5055754;28;20087;-73
2023/06/25 04:34:58;;;;;;;4.97;2.58;;;22.40;60.90;;;;;;5055739;28;20393;-73
2023/06/25 04:37:24;;;;;;;7.20;2.78;;;22.40;60.80;;;;;;5055802;28;20070;-74
2023/06/25 04:39:50;;;;;;;4.68;2.78;;;22.40;61.30;;;;;;5055445;28;20025;-73
2023/06/25 04:42:15;;;;;;;2.28;2.08;;;22.40;61.50;;;;;;5055114;28;20039;-73
2023/06/25 04:44:41;;;;;;;4.38;2.40;;;22.30;62.00;;;;;;5055893;28;20446;-73
2023/06/25 04:47:07;;;;;;;6.53;2.58;;;22.40;62.30;;;;;;5055529;28;20087;-74
2023/06/25 04:49:32;;;;;;;6.95;2.83;;;22.40;62.90;;;;;;5055677;28;20056;-74
2023/06/25 04:51:58;;;;;;;3.28;2.30;;;22.40;62.20;;;;;;5055690;28;20469;-74
2023/06/25 04:54:24;;;;;;;3.40;2.15;;;22.40;61.70;;;;;;5055195;28;20028;-74
2023/06/25 04:56:49;;;;;;;3.92;2.45;;;22.40;62.50;;;;;;5055006;28;20115;-74
2023/06/25 04:59:15;;;;;;;7.32;2.60;;;22.50;62.60;;;;;;5055442;28;20020;-74
2023/06/25 05:01:41;;;;;;;3.00;2.50;;;22.50;62.50;;;;;;5055496;28;20091;-74
2023/06/25 05:04:07;;;;;;;4.95;2.58;;;22.50;62.70;;;;;;5055274;28;20499;-74
2023/06/25 05:06:32;;;;;;;3.20;2.90;;;22.50;62.50;;;;;;5055457;28;20043;-74
2023/06/25 05:08:58;;;;;;;6.13;2.88;;;22.50;62.40;;;;;;5055044;28;20029;-73
2023/06/25 05:11:24;;;;;;;3.85;2.80;;;22.60;62.50;;;;;;5054844;28;20060;-73
2023/06/25 05:13:50;;;;;;;7.97;3.58;;;22.60;62.40;;;;;;5055132;28;20028;-74
2023/06/25 05:16:15;;;;;;;8.40;3.13;;;22.60;62.80;;;;;;5055103;28;20025;-74
2023/06/25 05:18:42;;;;;;;5.40;2.58;;;22.70;62.80;;;;;;5055039;28;20021;-74
2023/06/25 05:21:08;;;;;;;3.03;2.60;;;22.70;62.90;;;;;;5055050;28;20020;-74
2023/06/25 05:23:43;;;;;;;5.45;2.78;;;22.70;63.00;;;;;;5054789;28;20477;-74
2023/06/25 05:26:10;;;;;;;3.25;2.60;;;22.70;62.70;;;;;;5055065;28;20641;-73
2023/06/25 05:28:36;;;;;;;6.05;2.72;;;22.70;61.90;;;;;;5054570;28;20029;-74
2023/06/25 05:31:01;;;;;;;7.57;2.90;;;22.80;61.20;;;;;;5054767;28;20025;-74
2023/06/25 05:33:27;;;;;;;4.50;2.83;;;22.80;60.90;;;;;;5054819;28;20029;-74
2023/06/25 05:35:53;;;;;;;2.65;2.30;;;22.80;60.80;;;;;;5054700;28;20049;-74
2023/06/25 05:38:18;;;;;;;5.22;2.90;;;22.90;60.30;;;;;;5054291;28;20100;-74
2023/06/25 05:40:44;;;;;;;4.32;2.90;;;22.90;60.40;;;;;;5054296;28;20529;-74
2023/06/25 05:43:10;;;;;;;4.63;3.00;;;22.90;61.00;;;;;;5053069;28;20037;-74
2023/06/25 05:45:35;;;;;;;4.93;2.60;;;23.00;60.50;;;;;;5054519;28;20025;-74
2023/06/25 05:48:01;;;;;;;4.25;2.78;;;23.00;60.60;;;;;;5054227;28;20112;-74
2023/06/25 05:50:27;;;;;;;6.90;3.00;;;23.10;60.30;;;;;;5051171;28;20013;-75
2023/06/25 05:52:53;;;;;;;3.75;2.60;;;23.10;60.10;;;;;;5050980;28;20063;-77
2023/06/25 05:55:18;;;;;;;3.47;2.50;;;23.10;59.70;;;;;;5051265;28;20027;-74
2023/06/25 05:57:44;;;;;;;6.45;2.63;;;23.20;59.50;;;;;;5051700;28;20112;-74
2023/06/25 06:00:10;;;;;;;4.88;2.70;;;23.20;59.50;;;;;;5054226;28;20025;-74
2023/06/25 06:02:36;;;;;;;4.32;2.90;;;23.20;59.50;;;;;;5052901;28;20473;-75
2023/06/25 06:05:02;;;;;;;4.75;2.80;;;23.20;59.70;;;;;;5053728;28;20108;-75
2023/06/25 06:07:27;;;;;;;3.55;2.53;;;23.30;59.60;;;;;;5053847;28;20029;-75
2023/06/25 06:09:53;;;;;;;4.25;2.58;;;23.30;59.50;;;;;;5053873;28;20024;-76
2023/06/25 06:12:19;;;;;;;6.07;2.65;;;23.30;59.40;;;;;;5053709;28;20084;-75
2023/06/25 06:14:44;;;;;;;3.90;2.60;;;23.40;59.10;;;;;;5053900;28;20040;-75
2023/06/25 06:17:10;;;;;;;3.55;2.90;;;23.40;59.10;;;;;;5053628;28;20029;-75
2023/06/25 06:19:36;;;;;;;5.85;2.50;;;23.40;59.30;;;;;;5053733;28;20021;-77
2023/06/25 06:22:02;;;;;;;3.63;2.60;;;23.50;59.60;;;;;;5053489;28;20086;-75
2023/06/25 06:24:28;;;;;;;5.40;2.78;;;23.60;59.70;;;;;;5052078;28;20112;-74
2023/06/25 06:26:54;;;;;;;3.63;2.60;;;23.60;59.00;;;;;;5053605;28;20155;-74
2023/06/25 06:29:19;;;;;;;4.45;2.80;;;23.60;58.70;;;;;;5053501;28;20025;-74
2023/06/25 06:31:45;;;;;;;6.68;3.15;;;23.70;58.80;;;;;;5053150;28;20044;-74
2023/06/25 06:34:11;;;;;;;3.42;2.92;;;23.70;58.60;;;;;;5053103;28;20021;-74
2023/06/25 06:36:37;;;;;;;5.32;2.83;;;23.80;58.50;;;;;;5051948;28;20045;-74
2023/06/25 06:39:03;;;;;;;10.82;2.80;;;23.80;59.30;;;;;;5053168;28;20036;-75
2023/06/25 06:41:29;;;;;;;5.75;2.78;;;23.90;59.00;;;;;;5053170;28;20021;-75
2023/06/25 06:44:13;;;;;;;3.85;2.60;;;23.90;59.10;;;;;;5053379;28;20025;-75
2023/06/25 06:46:39;;;;;;;3.13;2.80;;;23.90;59.00;;;;;;5053236;28;20064;-75
2023/06/25 06:49:05;;;;;;;5.30;3.40;;;23.90;58.50;;;;;;5052712;28;20413;-75
2023/06/25 06:51:31;;;;;;;3.03;2.67;;;24.00;58.50;;;;;;5051914;28;20350;-75
2023/06/25 06:53:57;;;;;;;4.07;2.83;;;24.00;58.50;;;;;;5052551;28;20029;-75
2023/06/25 06:56:23;;;;;;;3.85;3.10;;;24.00;59.00;;;;;;5052406;28;20053;-72
2023/06/25 06:58:48;;;;;;;4.47;3.10;;;24.10;59.10;;;;;;5053336;28;20032;-73
2023/06/25 07:01:14;;;;;;;5.30;2.80;;;24.10;58.60;;;;;;5053204;28;20105;-74
2023/06/25 07:03:40;;;;;;;3.75;2.85;;;24.10;58.40;;;;;;5053049;28;20498;-73
2023/06/25 07:06:06;;;;;;;3.92;2.67;;;24.20;58.40;;;;;;5050739;28;20021;-73
2023/06/25 07:08:33;;;;;;;2.88;2.60;;;24.30;58.30;;;;;;5052424;28;20489;-73
2023/06/25 07:10:58;;;;;;;3.95;3.28;;;24.30;58.10;;;;;;5052183;28;20033;-74
2023/06/25 07:13:25;;;;;;;3.47;2.80;;;24.30;57.70;;;;;;5052469;28;20025;-74
2023/06/25 07:15:50;;;;;;;6.07;3.15;;;24.40;57.50;;;;;;5052489;28;20021;-74
2023/06/25 07:18:16;;;;;;;4.70;2.78;;;24.40;57.20;;;;;;5052379;28;20388;-74
2023/06/25 07:20:42;;;;;;;3.65;3.35;;;24.50;57.20;;;;;;5052563;28;20530;-74
2023/06/25 07:23:07;;;;;;;3.08;2.75;;;24.50;57.10;;;;;;5052663;28;20100;-73
2023/06/25 07:25:35;;;;;;;4.63;3.30;;;24.50;56.50;;;;;;5051519;28;20036;-73
2023/06/25 07:28:01;;;;;;;4.25;3.15;;;24.60;56.30;;;;;;5052775;28;20082;-74
2023/06/25 07:30:27;;;;;;;7.25;3.78;;;24.60;56.50;;;;;;5052331;28;20115;-73
2023/06/25 07:32:53;;;;;;;5.38;3.00;;;24.70;56.60;;;;;;5052406;28;20033;-73
2023/06/25 07:35:18;;;;;;;3.55;3.05;;;24.70;56.50;;;;;;5060066;22;20049;-73
2023/06/25 07:37:44;;;;;;;3.17;2.70;;;24.80;56.60;;;;;;5052898;28;20025;-73
2023/06/25 07:40:10;;;;;;;5.22;3.28;;;24.80;57.00;;;;;;5053050;28;20495;-73
2023/06/25 07:42:36;;;;;;;3.63;2.80;;;24.80;57.50;;;;;;5052697;28;20439;-74
2023/06/25 07:45:02;;;;;;;3.78;2.90;;;24.90;56.80;;;;;;5052641;28;20170;-74
2023/06/25 07:47:28;;;;;;;6.05;3.20;;;25.00;56.20;;;;;;5052550;28;20112;-73
2023/06/25 07:49:54;;;;;;;7.07;3.05;;;25.00;56.50;;;;;;5052596;28;20104;-73
2023/06/25 07:52:19;;;;;;;3.72;3.10;;;25.00;55.80;;;;;;5052814;28;20126;-74
2023/06/25 07:54:45;;;;;;;4.13;3.35;;;25.10;55.60;;;;;;5052643;28;20477;-74
2023/06/25 07:57:11;;;;;;;6.22;2.80;;;25.10;55.90;;;;;;5051130;28;20029;-74
2023/06/25 07:59:37;;;;;;;4.30;3.10;;;25.10;55.40;;;;;;5053439;28;20028;-73
2023/06/25 08:02:03;;;;;;;5.20;2.92;;;25.20;55.50;;;;;;5056576;28;20483;-73
2023/06/25 08:04:29;;;;;;;4.72;3.08;;;25.20;55.50;;;;;;5055375;28;20036;-74
2023/06/25 08:06:55;;;;;;;3.03;2.72;;;25.30;55.20;;;;;;5054927;28;20443;-74
2023/06/25 08:09:20;;;;;;;3.70;3.10;;;25.30;55.00;;;;;;5056378;28;20376;-74
2023/06/25 08:11:46;;;;;;;4.47;2.92;;;25.30;55.10;;;;;;5056323;28;20052;-74
2023/06/25 08:14:12;;;;;;;4.03;2.88;;;25.40;55.50;;;;;;5055968;28;20032;-74
2023/06/25 08:16:37;;;;;;;7.22;4.45;;;25.40;55.80;;;;;;5056049;28;20100;-75
2023/06/25 08:19:03;;;;;;;3.88;3.33;;;25.40;55.00;;;;;;5055050;28;20440;-74
2023/06/25 08:21:29;;;;;;;4.57;3.15;;;25.50;54.10;;;;;;5056453;28;20075;-74
2023/06/25 08:23:55;;;;;;;3.70;3.40;;;25.50;54.10;;;;;;5056272;28;20086;-74
2023/06/25 08:26:20;;;;;;;8.95;3.70;;;25.60;54.20;;;;;;5055948;28;20021;-74
2023/06/25 08:28:46;;;;;;;6.30;3.50;;;25.60;54.30;;;;;;5054693;28;20029;-74
2023/06/25 08:31:12;;;;;;;3.60;3.30;;;25.70;54.60;;;;;;5055825;28;20013;-74
2023/06/25 08:33:38;;;;;;;3.78;3.40;;;25.80;54.20;;;;;;5055678;28;20541;-74
2023/06/25 08:36:05;;;;;;;5.38;3.70;;;25.80;53.50;;;;;;5054432;28;20041;-74
2023/06/25 08:38:32;;;;;;;4.88;3.90;;;25.90;53.80;;;;;;5055569;28;20029;-74
2023/06/25 08:40:58;;;;;;;4.45;3.20;;;25.90;52.90;;;;;;5055976;28;20047;-74
2023/06/25 08:43:24;;;;;;;4.05;3.60;;;26.00;52.30;;;;;;5054508;28;20480;-74
2023/06/25 08:45:50;;;;;;;5.20;3.53;;;26.00;52.70;;;;;;5055682;28;20103;-73
2023/06/25 08:48:17;;;;;;;7.68;3.45;;;26.10;52.90;;;;;;5055645;28;20116;-74
2023/06/25 08:50:49;;;;;;;4.28;3.60;;;26.10;51.70;;;;;;5055827;28;20017;-73
2023/06/25 08:53:14;;;;;;;;;;;26.10;51.00;;;;;;5055948;28;20051;-74
2023/06/25 08:55:41;;;;;;;4.95;3.72;;;26.20;51.20;;;;;;5054212;28;19904;-74
2023/06/25 08:58:07;;;;;;;9.27;3.75;;;26.20;51.70;;;;;;5055636;28;20031;-74
2023/06/25 09:00:33;;;;;;;4.90;3.60;;;26.20;52.20;;;;;;5055259;28;20108;-74
2023/06/25 09:02:58;;;;;;;6.10;3.22;;;26.20;51.40;;;;;;5055233;28;20512;-73
2023/06/25 09:05:26;;;;;;;6.20;3.28;;;26.30;51.20;;;;;;5055032;28;20484;-74
2023/06/25 09:07:53;;;;;;;5.13;3.40;;;26.30;50.70;;;;;;5055211;28;20064;-74
2023/06/25 09:10:20;;;;;;;4.00;3.35;;;26.40;50.50;;;;;;5055411;28;20063;-74
2023/06/25 09:12:50;;;;;;;4.22;3.40;;;26.40;51.00;;;;;;5054538;28;20415;-74
2023/06/25 09:15:21;;;;;;;4.15;3.50;;;26.40;52.10;;;;;;5055195;28;20025;-75
2023/06/25 09:17:47;;;;;;;6.20;3.65;;;26.50;51.50;;;;;;5055106;28;20033;-76
2023/06/25 09:20:13;;;;;;;5.20;3.35;;;26.60;50.80;;;;;;5055206;28;20376;-76
2023/06/25 09:22:56;;;;;;;5.75;3.60;;;26.60;50.60;;;;;;5055183;28;20035;-75
2023/06/25 09:25:28;;;;;;;4.00;3.60;;;26.60;50.40;;;;;;5054676;28;20027;-75
2023/06/25 09:27:54;;;;;;;;;;;26.70;50.40;;;;;;5053933;28;20443;-74
2023/06/25 09:30:22;;;;;;;4.97;3.70;;;26.80;50.60;;;;;;5054792;28;19905;-74
2023/06/25 09:32:52;;;;;;;4.00;3.55;;;26.80;51.20;;;;;;5054773;28;20025;-73
2023/06/25 09:35:23;;;;;;;6.95;3.47;;;26.90;51.10;;;;;;5054663;28;20049;-74
2023/06/25 09:37:53;;;;;;;3.67;3.28;;;26.90;50.80;;;;;;5053401;28;20029;-76
2023/06/25 09:40:19;;;;;;;4.18;3.55;;;27.00;51.40;;;;;;5054328;28;20078;-75
2023/06/25 09:42:48;;;;;;;3.95;3.33;;;27.00;51.20;;;;;;5054649;28;20435;-76
2023/06/25 09:45:15;;;;;;;5.72;3.55;;;27.00;49.20;;;;;;5054730;28;20087;-75
2023/06/25 09:47:43;;;;;;;6.38;3.92;;;27.10;49.90;;;;;;5054571;28;20064;-76
2023/06/25 09:50:31;;;;;;;4.47;3.33;;;27.10;50.10;;;;;;5054711;28;20518;-75
2023/06/25 09:52:59;;;;;;;8.93;3.50;;;27.20;50.20;;;;;;5054636;28;20079;-76
2023/06/25 09:55:27;;;;;;;4.20;3.50;;;27.20;50.30;;;;;;5054539;28;20025;-75
2023/06/25 09:57:54;;;;;;;6.13;3.70;;;27.30;49.40;;;;;;5054419;28;20025;-75
2023/06/25 10:00:22;;;;;;;5.85;3.70;;;27.40;48.70;;;;;;5054426;28;20104;-76
2023/06/25 10:02:49;;;;;;;4.40;3.55;;;27.40;49.10;;;;;;5054260;28;20029;-75
2023/06/25 10:05:15;;;;;;;5.78;3.70;;;27.50;49.60;;;;;;5053936;28;20024;-75
2023/06/25 10:07:42;;;;;;;4.43;3.90;;;27.50;48.60;;;;;;5054360;28;20039;-75
2023/06/25 10:10:20;;;;;;;4.93;3.63;;;27.50;48.50;;;;;;5054320;28;20572;-77
2023/06/25 10:12:48;;;;;;;6.28;3.78;;;27.60;48.40;;;;;;5054205;28;20032;-76
2023/06/25 10:15:14;;;;;;;3.92;3.28;;;27.60;48.90;;;;;;5053782;28;20024;-76
2023/06/25 10:17:52;;;;;;;3.97;3.50;;;27.60;49.70;;;;;;5053711;28;20033;-76
2023/06/25 10:20:34;;;;;;;3.80;3.40;;;27.70;49.60;;;;;;5054036;28;20021;-76
2023/06/25 10:23:07;;;;;;;7.30;3.92;;;27.70;49.60;;;;;;5053205;28;20555;-75
2023/06/25 10:25:35;;;;;;;6.57;3.38;;;27.80;49.30;;;;;;5052382;28;20024;-75
2023/06/25 10:28:13;;;;;;;6.90;3.92;;;27.90;48.70;;;;;;5053516;28;20044;-76
2023/06/25 10:30:41;;;;;;;7.22;3.95;;;27.90;48.20;;;;;;5053615;28;20024;-76
2023/06/25 10:33:07;;;;;;;5.15;3.00;;;27.90;48.80;;;;;;5053591;28;20107;-75
2023/06/25 10:35:40;;;;;;;4.25;3.55;;;28.00;49.00;;;;;;5053504;28;20053;-76
2023/06/25 10:38:06;;;;;;;4.07;3.58;;;28.00;49.10;;;;;;5053519;28;20430;-76
2023/06/25 10:40:37;;;;;;;5.10;3.50;;;28.10;49.90;;;;;;5053338;28;20025;-76
2023/06/25 10:43:03;;;;;;;7.50;4.00;;;28.10;49.80;;;;;;5053508;28;20477;-76
2023/06/25 10:45:29;;;;;;;6.53;3.47;;;28.20;49.30;;;;;;5053403;28;20476;-76
2023/06/25 10:48:11;;;;;;;5.97;4.00;;;28.20;48.80;;;;;;5053282;28;20040;-76
2023/06/25 10:50:37;;;;;;;5.50;3.67;;;28.30;49.40;;;;;;5053329;28;20021;-75
2023/06/25 10:53:08;;;;;;;4.60;3.70;;;28.30;49.00;;;;;;5053178;28;20033;-76
2023/06/25 10:55:34;;;;;;;4.75;3.72;;;28.30;49.20;;;;;;5053281;28;20024;-76
2023/06/25 10:58:01;;;;;;;5.35;3.60;;;28.40;49.30;;;;;;5051850;28;20033;-75
2023/06/25 11:00:27;;;;;;;6.80;3.67;;;28.40;49.70;;;;;;5050430;28;20033;-74
2023/06/25 11:02:56;;;;;;;4.45;4.00;;;28.50;49.10;;;;;;5050981;28;20032;-75
2023/06/25 11:05:42;;;;;;;4.43;3.65;;;28.50;49.00;;;;;;5053042;28;20024;-76
2023/06/25 11:08:08;;;;;;;5.18;3.40;;;28.60;49.10;;;;;;5053016;28;20036;-76
2023/06/25 11:10:39;;;;;;;3.90;3.35;;;28.60;48.80;;;;;;5052019;28;20021;-76
2023/06/25 11:13:08;;;;;;;7.43;3.93;;;28.60;49.00;;;;;;5053107;28;20029;-76
2023/06/25 11:15:34;;;;;;;4.95;3.85;;;28.70;49.10;;;;;;5053354;28;20079;-75
2023/06/25 11:18:00;;;;;;;14.05;4.78;;;28.70;48.90;;;;;;5052893;28;20444;-76
2023/06/25 11:20:27;;;;;;;5.30;3.83;;;28.70;49.60;;;;;;5053149;28;20025;-76
2023/06/25 11:23:01;;;;;;;3.92;3.40;;;28.80;49.70;;;;;;5050562;28;20029;-77
2023/06/25 11:25:29;;;;;;;6.13;4.07;;;28.70;50.00;;;;;;5050316;28;20033;-75
2023/06/25 11:28:11;;;;;;;6.30;3.47;;;28.80;48.50;;;;;;5050264;28;20861;-75
2023/06/25 11:30:37;;;;;;;4.93;3.80;;;28.80;48.00;;;;;;5051894;28;20021;-76
2023/06/25 11:33:21;;;;;;;7.25;4.10;;;28.80;47.80;;;;;;5052515;28;20465;-75
2023/06/25 11:35:52;;;;;;;4.75;3.92;;;28.80;48.00;;;;;;5055291;28;20125;-76
2023/06/25 11:38:25;;;;;;;;;;;28.90;48.80;;;;;;5056884;28;20029;-76
2023/06/25 11:40:53;;;;;;;5.78;3.80;;;28.90;48.80;;;;;;5056810;28;19927;-76
2023/06/25 11:43:25;;;;;;;8.27;4.05;;;28.90;48.00;;;;;;5055622;28;20112;-75
2023/06/25 11:45:51;;;;;;;5.60;3.85;;;28.90;47.60;;;;;;5056499;28;20021;-76
2023/06/25 11:48:17;;;;;;;4.63;4.03;;;28.90;48.30;;;;;;5055564;28;20393;-75
2023/06/25 11:50:45;;;;;;;5.35;3.63;;;28.90;48.70;;;;;;5056743;28;20024;-76
2023/06/25 11:53:12;;;;;;;7.35;4.20;;;29.00;48.70;;;;;;5056433;28;20025;-76
2023/06/25 11:55:38;;;;;;;6.85;3.90;;;29.00;48.70;;;;;;5056437;28;20036;-75
2023/06/25 11:58:04;;;;;;;5.70;3.50;;;29.10;48.50;;;;;;5055230;28;20055;-76
2023/06/25 12:00:30;;;;;;;7.22;4.00;;;29.10;47.80;;;;;;5056324;28;20036;-76
2023/06/25 12:02:55;;;;;;;6.85;4.25;;;29.10;48.10;;;;;;5056829;28;20025;-76
2023/06/25 12:05:21;;;;;;;5.22;3.80;;;29.20;48.40;;;;;;5056497;28;20027;-76
2023/06/25 12:07:47;;;;;;;4.90;3.80;;;29.20;48.50;;;;;;5056006;28;20499;-76
2023/06/25 12:10:13;;;;;;;8.05;4.63;;;29.20;48.30;;;;;;5056277;28;20029;-76
2023/06/25 12:12:39;;;;;;;4.75;4.00;;;29.20;48.70;;;;;;5056589;28;20021;-76
2023/06/25 12:15:05;;;;;;;5.72;3.75;;;29.30;47.80;;;;;;5056035;28;20091;-76
2023/06/25 12:17:30;;;;;;;5.75;3.30;;;29.30;47.00;;;;;;5056327;28;20070;-76
2023/06/25 12:19:56;;;;;;;6.47;4.22;;;29.30;47.30;;;;;;5056198;28;20029;-76
2023/06/25 12:22:22;;;;;;;4.57;4.13;;;29.40;47.90;;;;;;5056335;28;20021;-76
2023/06/25 12:24:47;;;;;;;6.05;3.45;;;29.40;48.00;;;;;;5055728;28;20031;-75
2023/06/25 12:27:13;;;;;;;6.60;3.95;;;29.40;47.70;;;;;;5056219;28;20082;-76
2023/06/25 12:29:39;;;;;;;6.07;3.88;;;29.50;48.00;;;;;;5055928;28;20036;-76
2023/06/25 12:32:05;;;;;;;7.13;3.90;;;29.50;47.90;;;;;;5055742;28;20021;-76
2023/06/25 12:34:30;;;;;;;6.63;4.00;;;29.50;47.70;;;;;;5055814;28;20104;-76
2023/06/25 12:36:56;;;;;;;4.57;4.13;;;29.50;47.60;;;;;;5055811;28;20077;-76
2023/06/25 12:39:22;;;;;;;5.20;4.20;;;29.50;47.30;;;;;;5055588;28;20056;-77
2023/06/25 12:41:48;;;;;;;4.93;4.20;;;29.60;47.30;;;;;;5055972;28;20427;-76
2023/06/25 12:44:13;;;;;;;5.03;4.15;;;29.60;47.30;;;;;;5055863;28;20025;-76
2023/06/25 12:46:39;;;;;;;5.03;3.90;;;29.60;47.50;;;;;;5053989;28;20025;-76